الصفحة الرئيسية
METAR-TAF:

METAR-TAF

مطار :

بونبي, مايكرونيزيا

دائرة عرض: 06-59N, خط طول: 158-12E, ارتفاع: 2 متر

مراقبة الطقس الحالي

تاريخ ووقت الإصدار 24ساعات و 26 دقيقة قبل الساعة 04:50UTC
ريح 4 عقدة من الجنوب الشرقي
درجة الحرارة 27°درجة مئوية
الرطوبة 94%
ضغط 1006 hPa
الرؤية: 20.9 كم
غيوم مفككة على ارتفاع 1800 قدم, مزن ركامية عمودية.
غيوم مفككة على ارتفاع 13000 قدم
ملبد بالغيوم على ارتفاع 30000 قدم

METAR: PTPN 200450Z 14004KT 13SM BKN018TCU BKN130 OVC300 27/26 A2971 RMK TCU ALQDS LAST

زمن: 16:16 (05:16 UTC)

توقعات

تاريخ ووقت الإصدار 26ساعات و 12 دقيقة قبل الساعة 03:04UTC
التوقعات صالحة من20 الساعة 03 UTC إلى 20 الساعة 24 UTC
ريح 8 عقدة من الشرق
الرؤية: 10 كم
غيوم متفرقة على ارتفاع 1800 قدم
غيوم متفرقة على ارتفاع 13000 قدم
زخات في الجوار
مؤقت
من 20 الساعة 03 UTC إلى 20 الساعة 06 UTC
الرؤية: 8.0 كم
غيوم مفككة على ارتفاع 1800 قدم
زخات من المطر

TAF: PTPN 200304Z 2003/2024 09008KT P6SM VCSH SCT018 SCT130 TEMPO 2003/2006 5SM SHRA BKN018

أرصاد الطقس والتوقعات من أكثر من 4000 مطار (تقارير الطقس للمطار METAR والتنبؤ بالطقس بالمطارTAF).

المحطات المتاحة هي النقط الصفراء والحمراء على الخريطة.

حرك المؤشر فوق النقطة لمعرفة اسم المحطة.

ثم انقر لمعرفة أرصاد وتوقعات الطقس.

لتغيير الخارطة: اضغط على الأزرار الخضراء مع رمز الصليب الأسود للتكبير. على الزر الأخضر مع شرطة للتصغير، أو على الأسهم الخضراء للخرائط المجاورة.


METAR-TAF: